createdAt,value
2018-07-01T12:53:19.795Z,26.73
2018-07-01T12:54:19.700Z,27.42
2018-07-01T12:56:12.497Z,27.61
2018-07-01T12:57:12.407Z,26.54
2018-07-01T12:59:05.244Z,26.65
2018-07-01T13:00:05.132Z,26.45
2018-07-01T13:01:58.016Z,26.25
2018-07-01T13:02:57.906Z,27.79
2018-07-01T13:04:50.722Z,27.22
2018-07-01T13:05:50.629Z,27.31
2018-07-01T13:07:46.624Z,28.29
2018-07-01T13:08:47.011Z,26.85
2018-07-01T13:10:40.344Z,26.25
2018-07-01T13:11:40.221Z,26.92
2018-07-01T13:13:33.078Z,28.07
2018-07-01T13:14:32.979Z,28.65
2018-07-01T13:16:25.852Z,29.70
2018-07-01T13:17:25.827Z,28.64
2018-07-01T13:19:18.573Z,29.92
2018-07-01T13:20:18.495Z,27.71
2018-07-01T13:22:11.641Z,27.42
2018-07-01T13:23:11.241Z,28.50
2018-07-01T13:25:04.154Z,27.53
2018-07-01T13:26:03.980Z,27.92
2018-07-01T13:27:56.799Z,28.20
2018-07-01T13:28:56.722Z,28.20
2018-07-01T13:30:49.571Z,27.43
2018-07-01T13:31:49.492Z,28.66
2018-07-01T13:33:42.303Z,29.90
2018-07-01T13:34:42.216Z,30.25
2018-07-01T13:36:35.079Z,30.93
2018-07-01T13:37:34.980Z,31.31
2018-07-01T13:39:27.803Z,32.68
2018-07-01T13:40:27.719Z,31.36
2018-07-01T13:42:20.576Z,29.46
2018-07-01T13:43:20.517Z,29.36
2018-07-01T13:45:13.346Z,28.40
2018-07-01T13:46:13.227Z,28.20
2018-07-01T13:48:06.081Z,27.82
2018-07-01T13:49:05.989Z,27.62
2018-07-01T13:50:58.894Z,28.98
2018-07-01T13:51:58.752Z,29.27
2018-07-01T13:53:51.571Z,28.76
2018-07-01T13:54:51.482Z,29.91
2018-07-01T13:56:44.376Z,30.86
2018-07-01T13:57:44.240Z,30.75
2018-07-01T13:59:37.588Z,32.39
2018-07-01T14:00:37.498Z,32.42
2018-07-01T14:02:30.370Z,30.52
2018-07-01T14:03:30.234Z,29.74
2018-07-01T14:05:23.108Z,28.38
2018-07-01T14:06:23.218Z,28.66
2018-07-01T14:08:16.524Z,29.37
2018-07-01T14:09:15.754Z,28.79
2018-07-01T14:11:21.007Z,28.32
2018-07-01T14:12:16.987Z,27.83
2018-07-01T14:14:10.934Z,27.56
2018-07-01T14:15:10.755Z,28.34
2018-07-01T14:17:03.592Z,27.69
2018-07-01T14:18:03.499Z,27.59
2018-07-01T14:19:56.403Z,26.93
2018-07-01T14:20:56.248Z,26.93
2018-07-01T14:22:49.081Z,26.36
2018-07-01T14:23:48.998Z,27.33
2018-07-01T14:25:41.841Z,26.14
2018-07-01T14:26:41.761Z,26.79
2018-07-01T14:28:34.604Z,27.54
2018-07-01T14:29:34.500Z,27.51
2018-07-01T14:31:27.734Z,29.44
2018-07-01T14:32:27.657Z,29.71
2018-07-01T14:34:20.542Z,30.29
2018-07-01T14:35:20.402Z,30.78
2018-07-01T14:37:13.344Z,30.44
2018-07-01T14:38:13.266Z,29.87
2018-07-01T14:40:06.656Z,28.54
2018-07-01T14:41:06.429Z,28.17
2018-07-01T14:42:59.248Z,27.37
2018-07-01T14:43:59.186Z,27.78
2018-07-01T14:45:52.061Z,27.45
2018-07-01T14:46:51.913Z,28.49
2018-07-01T14:48:45.295Z,29.66
2018-07-01T14:49:45.178Z,29.37
2018-07-01T14:51:38.012Z,28.80
2018-07-01T14:52:37.934Z,28.53
2018-07-01T14:54:31.792Z,28.64
2018-07-01T14:55:31.192Z,27.58
2018-07-01T14:57:24.036Z,27.50
2018-07-01T14:58:23.958Z,27.03
2018-07-01T15:00:16.791Z,25.96
2018-07-01T15:01:16.726Z,25.47
2018-07-01T15:03:09.524Z,26.03
2018-07-01T15:04:09.460Z,27.46
2018-07-01T15:06:02.330Z,29.22
2018-07-01T15:07:02.216Z,28.17
2018-07-01T15:08:55.039Z,27.57
2018-07-01T15:09:54.933Z,27.96
2018-07-01T15:11:47.787Z,27.11
2018-07-01T15:12:47.696Z,27.11
2018-07-01T15:14:40.582Z,26.73
2018-07-01T15:15:40.440Z,25.97
2018-07-01T15:17:33.273Z,26.08
2018-07-01T15:18:33.187Z,25.62
2018-07-01T15:20:26.060Z,25.51
2018-07-01T15:21:26.028Z,25.23
2018-07-01T15:23:19.324Z,24.66
2018-07-01T15:24:19.193Z,25.18
2018-07-01T15:26:12.081Z,28.25
2018-07-01T15:27:11.970Z,28.63
2018-07-01T15:29:04.806Z,28.53
2018-07-01T15:30:04.764Z,28.59
2018-07-01T15:31:57.576Z,28.69
2018-07-01T15:32:57.516Z,29.27
2018-07-01T15:34:50.819Z,28.64
2018-07-01T15:35:50.196Z,27.78
2018-07-01T15:37:43.067Z,25.98
2018-07-01T15:38:43.155Z,25.42
2018-07-01T15:40:35.811Z,24.16
2018-07-01T15:41:35.691Z,24.65
2018-07-01T15:43:28.566Z,23.80
2018-07-01T15:44:28.451Z,22.55
2018-07-01T15:46:21.297Z,22.46
2018-07-01T15:47:21.224Z,22.66
2018-07-01T15:49:14.142Z,23.60
2018-07-01T15:50:13.957Z,24.82
2018-07-01T15:52:07.307Z,26.43
2018-07-01T15:53:07.220Z,26.90
2018-07-01T15:55:00.131Z,26.17
2018-07-01T15:55:59.955Z,26.29
2018-07-01T15:57:52.803Z,24.73
2018-07-01T15:58:52.709Z,25.30
2018-07-01T16:00:46.113Z,26.82
2018-07-01T16:01:45.471Z,26.71
2018-07-01T16:03:38.310Z,28.05
2018-07-01T16:04:38.244Z,27.69
2018-07-01T16:06:31.053Z,26.09
2018-07-01T16:07:30.954Z,24.77
2018-07-01T16:09:23.797Z,24.03
2018-07-01T16:10:23.732Z,22.49
2018-07-01T16:12:16.602Z,21.45
2018-07-01T16:13:16.622Z,20.96
2018-07-01T16:15:09.303Z,20.09
2018-07-01T16:16:09.211Z,20.27
2018-07-01T16:18:02.130Z,20.17
2018-07-01T16:19:01.977Z,20.93
2018-07-01T16:20:55.301Z,21.12
2018-07-01T16:21:55.261Z,21.52
2018-07-01T16:23:48.080Z,20.96
2018-07-01T16:24:48.031Z,20.38
2018-07-01T16:26:40.858Z,20.29
2018-07-01T16:27:40.726Z,19.80
2018-07-01T16:29:33.586Z,20.62
2018-07-01T16:30:33.466Z,21.20
2018-07-01T16:32:26.297Z,22.28
2018-07-01T16:33:26.214Z,22.10
2018-07-01T16:35:19.089Z,21.24
2018-07-01T16:36:18.983Z,21.06
2018-07-01T16:38:11.841Z,20.07
2018-07-01T16:39:11.762Z,20.07
2018-07-01T16:41:04.643Z,19.89
2018-07-01T16:42:04.475Z,20.84
2018-07-01T16:43:57.321Z,22.42
2018-07-01T16:44:57.233Z,22.84
2018-07-01T16:46:50.040Z,22.74
2018-07-01T16:47:49.988Z,23.78
2018-07-01T16:49:42.812Z,24.68
2018-07-01T16:50:42.884Z,26.33
2018-07-01T16:52:35.734Z,26.34
2018-07-01T16:53:35.584Z,26.06
2018-07-01T16:55:28.933Z,25.23
2018-07-01T16:56:28.892Z,24.28
2018-07-01T16:58:21.773Z,23.73
2018-07-01T16:59:21.673Z,22.09
2018-07-01T17:01:14.537Z,21.24
2018-07-01T17:02:14.468Z,21.15
2018-07-01T17:04:07.311Z,20.19
2018-07-01T17:05:07.255Z,19.90
2018-07-01T17:07:00.031Z,20.01
2018-07-01T17:07:59.953Z,18.95
2018-07-01T17:09:52.816Z,21.19
2018-07-01T17:10:52.686Z,22.62
2018-07-01T17:12:45.546Z,23.05
2018-07-01T17:13:45.494Z,22.28
2018-07-01T17:15:38.287Z,20.64
2018-07-01T17:16:38.185Z,20.74
2018-07-01T17:18:31.116Z,21.28
2018-07-01T17:19:30.935Z,22.89
2018-07-01T17:21:24.283Z,24.32
2018-07-01T17:22:24.213Z,24.79
2018-07-01T17:24:17.143Z,25.85
2018-07-01T17:25:17.063Z,25.95
2018-07-01T17:27:10.800Z,25.27
2018-07-01T17:28:10.742Z,24.83
2018-07-01T17:30:03.675Z,23.82
2018-07-01T17:31:03.485Z,22.37
2018-07-01T17:32:56.359Z,21.24
2018-07-01T17:33:56.214Z,20.18
2018-07-01T17:35:49.641Z,19.41
2018-07-01T17:36:49.500Z,19.51
2018-07-01T17:38:42.323Z,19.32
2018-07-01T17:39:42.307Z,18.93
2018-07-01T17:41:35.121Z,18.74
2018-07-01T17:42:35.103Z,18.95
2018-07-01T17:44:27.926Z,18.46
2018-07-01T17:45:27.764Z,18.46
2018-07-01T17:47:20.619Z,18.46
2018-07-01T17:48:20.527Z,18.06
2018-07-01T17:50:13.492Z,18.06
2018-07-01T17:51:13.269Z,18.37
2018-07-01T17:53:06.100Z,17.77
2018-07-01T17:54:05.989Z,18.54
2018-07-01T17:55:58.829Z,19.04
2018-07-01T17:56:58.743Z,18.35
2018-07-01T17:58:51.576Z,18.04
2018-07-01T17:59:51.581Z,19.01
2018-07-01T18:01:44.344Z,19.59
2018-07-01T18:02:44.241Z,20.07
2018-07-01T18:04:37.082Z,19.71
2018-07-01T18:05:36.989Z,19.42
2018-07-01T18:07:29.898Z,19.42
2018-07-01T18:08:29.853Z,19.70
2018-07-01T18:10:22.594Z,20.28
2018-07-01T18:11:22.495Z,19.88
2018-07-01T18:13:15.379Z,19.86
2018-07-01T18:14:15.246Z,20.90
2018-07-01T18:16:08.118Z,23.47
2018-07-01T18:17:08.032Z,24.30
2018-07-01T18:19:00.855Z,26.21
2018-07-01T18:20:00.732Z,26.87
2018-07-01T18:23:27.412Z,29.66
2018-07-01T18:25:01.540Z,29.83
2018-07-01T18:25:46.411Z,30.49
2018-07-01T18:27:40.136Z,31.23
2018-07-01T18:28:48.665Z,31.51
2018-07-01T18:30:31.827Z,32.56
2018-07-01T18:31:31.744Z,32.67
2018-07-01T18:33:24.615Z,32.94
2018-07-01T18:34:24.509Z,33.23
2018-07-01T18:36:17.310Z,33.42
2018-07-01T18:37:17.227Z,33.60
2018-07-01T18:39:10.598Z,34.08
2018-07-01T18:40:10.531Z,34.86
2018-07-01T18:42:03.336Z,34.95
2018-07-01T18:43:03.245Z,34.47
2018-07-01T18:44:56.080Z,35.05
2018-07-01T18:45:55.975Z,35.14
2018-07-01T18:47:48.826Z,35.13
2018-07-01T18:48:48.756Z,35.80
2018-07-01T18:50:41.569Z,36.67
2018-07-01T18:51:41.488Z,35.13
2018-07-01T18:53:34.299Z,36.19
2018-07-01T18:54:34.241Z,36.00
2018-07-01T18:56:27.077Z,35.02
2018-07-01T18:57:26.986Z,35.98
2018-07-01T18:59:19.825Z,36.55
2018-07-01T19:00:19.735Z,36.65
2018-07-01T19:02:12.560Z,35.50
2018-07-01T19:03:12.479Z,36.36
2018-07-01T19:05:05.347Z,37.02
2018-07-01T19:06:05.236Z,36.63
2018-07-01T19:07:58.071Z,37.12
2018-07-01T19:08:57.975Z,37.31
2018-07-01T19:10:50.812Z,37.19
2018-07-01T19:11:50.724Z,38.06
2018-07-01T19:13:43.551Z,37.68
2018-07-01T19:14:43.469Z,37.58
2018-07-01T19:16:36.332Z,37.66
2018-07-01T19:17:36.245Z,39.49
2018-07-01T19:19:29.068Z,40.16
2018-07-01T19:20:28.966Z,39.87
2018-07-01T19:22:21.797Z,39.59
2018-07-01T19:23:21.727Z,39.29
2018-07-01T19:25:15.089Z,39.59
2018-07-01T19:26:14.970Z,39.78
2018-07-01T19:28:07.803Z,41.39
2018-07-01T19:29:07.722Z,41.59
2018-07-01T19:31:00.604Z,40.43
2018-07-01T19:32:00.472Z,41.78
2018-07-01T19:33:53.305Z,42.16
2018-07-01T19:34:53.229Z,43.41
2018-07-01T19:36:46.069Z,43.40
2018-07-01T19:37:45.972Z,43.68
2018-07-01T19:39:38.834Z,44.65
2018-07-01T19:40:38.761Z,44.45
2018-07-01T19:42:31.696Z,45.59
2018-07-01T19:43:32.919Z,45.49
2018-07-01T19:45:24.353Z,46.43
2018-07-01T19:46:24.274Z,47.58
2018-07-01T19:48:17.056Z,47.68
2018-07-01T19:49:16.993Z,48.35
2018-07-01T19:51:09.834Z,49.00
2018-07-01T19:52:09.805Z,49.48
2018-07-01T19:54:02.543Z,49.48
2018-07-01T19:55:02.457Z,49.87
2018-07-01T19:56:55.353Z,50.03
2018-07-01T19:57:55.280Z,50.32
2018-07-01T19:59:48.072Z,50.80
2018-07-01T20:00:48.001Z,51.09
2018-07-01T20:02:40.824Z,51.54
2018-07-01T20:03:40.708Z,52.31
2018-07-01T20:05:33.585Z,52.89
2018-07-01T20:06:34.069Z,53.36
2018-07-01T20:08:26.311Z,53.44
2018-07-01T20:09:26.209Z,54.30
2018-07-01T20:11:19.088Z,54.58
2018-07-01T20:12:18.961Z,54.58
2018-07-01T20:14:11.908Z,55.74
2018-07-01T20:15:11.807Z,56.60
2018-07-01T20:17:04.756Z,56.19
2018-07-01T20:18:04.682Z,56.41
2018-07-01T20:19:58.012Z,56.57
2018-07-01T20:20:57.530Z,56.86
2018-07-01T20:22:50.371Z,56.96
2018-07-01T20:23:50.280Z,56.96
2018-07-01T20:25:43.109Z,56.86
2018-07-01T20:26:43.008Z,56.38
2018-07-01T20:28:35.873Z,56.76
2018-07-01T20:29:35.767Z,57.06
2018-07-01T20:31:28.627Z,57.12
2018-07-01T20:32:28.510Z,57.63
2018-07-01T20:34:21.364Z,57.60
2018-07-01T20:35:21.254Z,58.17
2018-07-01T20:37:14.118Z,58.08
2018-07-01T20:38:14.019Z,58.84
2018-07-01T20:40:06.881Z,58.08
2018-07-01T20:41:06.758Z,57.98
2018-07-01T20:42:59.622Z,58.27
2018-07-01T20:44:00.372Z,58.56
2018-07-01T20:45:52.382Z,59.30
2018-07-01T20:46:52.254Z,59.77
2018-07-01T20:48:45.186Z,59.68
2018-07-01T20:49:45.077Z,59.68
2018-07-01T20:51:37.878Z,60.44
2018-07-01T20:52:37.761Z,60.73
2018-07-01T20:54:30.596Z,60.83
2018-07-01T20:55:30.501Z,61.21
2018-07-01T20:57:23.388Z,61.47
2018-07-01T20:58:23.279Z,61.85
2018-07-01T21:00:16.133Z,61.28
2018-07-01T21:01:16.089Z,61.47
2018-07-01T21:03:08.883Z,62.62
2018-07-01T21:04:08.747Z,62.33
2018-07-01T21:06:02.128Z,62.52
2018-07-01T21:07:01.539Z,62.71
2018-07-01T21:08:54.370Z,62.62
2018-07-01T21:09:54.263Z,63.16
2018-07-01T21:11:47.175Z,63.35
2018-07-01T21:12:47.089Z,63.45
2018-07-01T21:14:39.865Z,63.35
2018-07-01T21:15:39.766Z,63.35
2018-07-01T21:17:32.616Z,63.26
2018-07-01T21:18:32.520Z,63.83
2018-07-01T21:20:25.485Z,63.45
2018-07-01T21:21:25.366Z,63.16
2018-07-01T21:23:18.196Z,64.02
2018-07-01T21:24:18.107Z,64.09
2018-07-01T21:26:10.970Z,63.13
2018-07-01T21:27:10.854Z,64.18
2018-07-01T21:29:03.719Z,64.18
2018-07-01T21:30:03.599Z,64.56
2018-07-01T21:31:56.441Z,63.80
2018-07-01T21:32:56.341Z,65.04
2018-07-01T21:34:49.198Z,65.14
2018-07-01T21:35:49.094Z,65.33
2018-07-01T21:37:41.986Z,65.33
2018-07-01T21:38:41.848Z,64.75
2018-07-01T21:40:34.632Z,65.81
2018-07-01T21:41:34.496Z,65.58
2018-07-01T21:43:27.340Z,66.54
2018-07-01T21:44:27.319Z,66.25
2018-07-01T21:46:20.198Z,66.73
2018-07-01T21:47:20.142Z,67.02
2018-07-01T21:49:12.964Z,67.59
2018-07-01T21:50:12.868Z,67.11
2018-07-01T21:52:05.722Z,67.11
2018-07-01T21:53:05.634Z,67.21
2018-07-01T21:54:58.972Z,67.69
2018-07-01T21:55:58.866Z,67.11
2018-07-01T21:57:51.705Z,67.21
2018-07-01T21:58:52.114Z,67.02
2018-07-01T22:00:44.990Z,67.11
2018-07-01T22:01:44.380Z,67.40
2018-07-01T22:03:37.770Z,67.11
2018-07-01T22:04:37.127Z,67.40
2018-07-01T22:06:29.975Z,69.12
2018-07-01T22:07:29.848Z,69.47
2018-07-01T22:09:22.605Z,69.66
2018-07-01T22:10:22.506Z,69.56
2018-07-01T22:12:15.386Z,69.95
2018-07-01T22:13:15.266Z,70.04
2018-07-01T22:15:08.009Z,70.04
2018-07-01T22:16:07.912Z,70.61
2018-07-01T22:18:01.172Z,70.52
2018-07-01T22:19:01.077Z,69.56
2018-07-01T22:20:53.815Z,70.46
2018-07-01T22:21:53.744Z,70.42
2018-07-01T22:23:46.577Z,69.89
2018-07-01T22:24:46.450Z,70.42
2018-07-01T22:26:39.206Z,71.00
2018-07-01T22:27:39.115Z,70.61
2018-07-01T22:29:31.952Z,71.19
2018-07-01T22:30:31.846Z,71.76
2018-07-01T22:32:24.741Z,71.19
2018-07-01T22:33:24.597Z,71.67
2018-07-01T22:35:17.476Z,72.33
2018-07-01T22:36:17.857Z,72.62
2018-07-01T22:38:10.243Z,72.81
2018-07-01T22:39:10.104Z,72.62
2018-07-01T22:41:02.981Z,73.39
2018-07-01T22:42:02.862Z,72.97
2018-07-01T22:43:55.727Z,73.10
2018-07-01T22:44:55.611Z,73.48
2018-07-01T22:46:48.467Z,74.63
2018-07-01T22:47:48.344Z,74.88
2018-07-01T22:49:41.105Z,74.69
2018-07-01T22:50:41.001Z,74.88
2018-07-01T22:52:33.845Z,74.69
2018-07-01T22:53:33.759Z,76.12
2018-07-01T22:55:26.622Z,75.45
2018-07-01T22:56:26.393Z,75.54
2018-07-01T22:58:19.273Z,76.12
2018-07-01T22:59:19.153Z,76.40
2018-07-01T23:01:11.999Z,75.64
2018-07-01T23:02:11.926Z,75.54
2018-07-01T23:04:04.663Z,75.93
2018-07-01T23:05:04.762Z,75.74
2018-07-01T23:06:57.476Z,76.03
2018-07-01T23:07:57.184Z,76.12
2018-07-01T23:09:50.039Z,76.21
2018-07-01T23:10:49.932Z,76.98
2018-07-01T23:12:42.917Z,77.94
2018-07-01T23:13:42.700Z,78.22
2018-07-01T23:15:35.620Z,78.79
2018-07-01T23:16:35.433Z,78.70
2018-07-01T23:18:28.172Z,79.08
2018-07-01T23:19:28.086Z,78.51
2018-07-01T23:21:20.991Z,79.08
2018-07-01T23:22:20.858Z,78.60
2018-07-01T23:24:13.706Z,78.22
2018-07-01T23:25:13.665Z,78.22
2018-07-01T23:27:06.440Z,77.36
2018-07-01T23:28:06.347Z,77.26
2018-07-01T23:29:59.071Z,77.36
2018-07-01T23:30:58.979Z,77.74
2018-07-01T23:32:51.753Z,77.26
2018-07-01T23:33:51.669Z,77.55
2018-07-01T23:35:44.498Z,78.31
2018-07-01T23:36:44.372Z,77.74
2018-07-01T23:38:37.762Z,78.51
2018-07-01T23:39:37.630Z,78.70
2018-07-01T23:41:30.411Z,78.41
2018-07-01T23:42:30.286Z,79.36
2018-07-01T23:44:23.041Z,79.71
2018-07-01T23:45:22.929Z,79.99
2018-07-01T23:47:15.805Z,79.43
2018-07-01T23:48:15.738Z,79.56
2018-07-01T23:50:08.524Z,79.75
2018-07-01T23:51:08.481Z,79.36
2018-07-01T23:53:01.302Z,80.19
2018-07-01T23:54:01.221Z,80.76
2018-07-01T23:55:54.030Z,81.43
2018-07-01T23:56:53.958Z,82.00
2018-07-01T23:58:46.800Z,82.48
2018-07-01T23:59:46.689Z,82.57
